createdAt,value
2022-08-08T00:00:56.389Z,10.72
2022-08-08T00:01:08.919Z,10.72
2022-08-08T00:02:30.163Z,10.74
2022-08-08T00:03:20.226Z,10.72
2022-08-08T00:04:02.149Z,10.69
2022-08-08T00:05:01.128Z,10.69
2022-08-08T00:06:03.856Z,10.69
2022-08-08T00:07:01.081Z,10.67
2022-08-08T00:08:02.111Z,10.68
2022-08-08T00:09:01.057Z,10.69
2022-08-08T00:10:01.022Z,10.69
2022-08-08T00:11:01.037Z,10.69
2022-08-08T00:12:08.030Z,10.67
2022-08-08T00:13:02.075Z,10.61
2022-08-08T00:14:15.172Z,10.59
2022-08-08T00:15:04.814Z,10.59
2022-08-08T00:16:00.978Z,10.46
2022-08-08T00:17:00.958Z,10.41
2022-08-08T00:18:03.632Z,10.35
2022-08-08T00:19:00.931Z,10.31
2022-08-08T00:20:00.911Z,10.30
2022-08-08T00:21:00.937Z,10.22
2022-08-08T00:22:00.873Z,10.22
2022-08-08T00:23:00.907Z,10.25
2022-08-08T00:24:00.846Z,10.26
2022-08-08T00:25:00.855Z,10.25
2022-08-08T00:26:00.847Z,10.20
2022-08-08T00:27:00.836Z,10.20
2022-08-08T00:28:00.861Z,10.20
2022-08-08T00:29:00.819Z,10.16
2022-08-08T00:30:00.821Z,10.12
2022-08-08T00:32:15.122Z,10.13
2022-08-08T00:32:20.362Z,10.13
2022-08-08T00:33:01.809Z,10.10
2022-08-08T00:34:18.760Z,10.05
2022-08-08T00:35:04.157Z,10.09
2022-08-08T00:36:00.741Z,10.04
2022-08-08T00:37:03.397Z,10.02
2022-08-08T00:38:02.953Z,9.99
2022-08-08T00:39:00.744Z,10.01
2022-08-08T00:41:06.825Z,10.12
2022-08-08T00:41:09.858Z,10.04
2022-08-08T00:42:08.866Z,10.17
2022-08-08T00:43:06.068Z,10.17
2022-08-08T00:44:01.741Z,10.17
2022-08-08T00:45:00.637Z,10.20
2022-08-08T00:46:00.643Z,10.22
2022-08-08T00:47:00.612Z,10.20
2022-08-08T00:48:05.083Z,10.17
2022-08-08T00:49:01.594Z,10.16
2022-08-08T00:50:00.573Z,10.17
2022-08-08T00:51:00.566Z,10.15
2022-08-08T00:52:00.522Z,10.07
2022-08-08T00:53:00.673Z,9.99
2022-08-08T00:54:13.472Z,9.99
2022-08-08T00:55:01.498Z,10.02
2022-08-08T00:56:00.482Z,10.01
2022-08-08T00:57:00.487Z,10.04
2022-08-08T00:58:00.542Z,10.04
2022-08-08T00:59:00.475Z,10.07
2022-08-08T01:00:00.446Z,10.09
2022-08-08T01:01:00.490Z,10.12
2022-08-08T01:02:01.571Z,10.12
2022-08-08T01:03:55.671Z,10.09
2022-08-08T01:04:04.141Z,10.10
2022-08-08T01:05:00.389Z,10.10
2022-08-08T01:06:00.930Z,10.10
2022-08-08T01:07:01.797Z,10.10
2022-08-08T01:08:01.402Z,10.07
2022-08-08T01:09:00.353Z,10.07
2022-08-08T01:10:01.344Z,10.09
2022-08-08T01:11:01.361Z,10.12
2022-08-08T01:12:00.308Z,10.15
2022-08-08T01:13:00.333Z,10.15
2022-08-08T01:14:00.289Z,10.17
2022-08-08T01:15:00.652Z,10.19
2022-08-08T01:16:00.275Z,10.16
2022-08-08T01:17:00.240Z,10.13
2022-08-08T01:18:02.345Z,10.10
2022-08-08T01:19:11.540Z,10.02
2022-08-08T01:20:02.830Z,9.99
2022-08-08T01:21:00.207Z,9.98
2022-08-08T01:22:13.045Z,9.98
2022-08-08T01:23:01.213Z,9.98
2022-08-08T01:24:06.051Z,9.99
2022-08-08T01:25:01.138Z,10.04
2022-08-08T01:26:02.067Z,10.07
2022-08-08T01:27:01.125Z,10.05
2022-08-08T01:28:01.901Z,10.02
2022-08-08T01:29:00.138Z,10.04
2022-08-08T01:30:03.173Z,10.04
2022-08-08T01:31:00.095Z,10.02
2022-08-08T01:32:06.337Z,10.04
2022-08-08T01:33:01.116Z,10.01
2022-08-08T01:34:01.400Z,10.01
2022-08-08T01:35:00.027Z,9.99
2022-08-08T01:36:01.200Z,9.99
2022-08-08T01:37:00.030Z,9.97
2022-08-08T01:38:00.106Z,9.94
2022-08-08T01:39:00.046Z,9.92
2022-08-08T01:40:00.078Z,9.92
2022-08-08T01:40:59.993Z,9.87
2022-08-08T01:41:59.976Z,9.86
2022-08-08T01:42:59.985Z,9.83
2022-08-08T01:43:59.948Z,9.82
2022-08-08T01:45:00.306Z,9.80
2022-08-08T01:45:59.923Z,9.80
2022-08-08T01:46:59.898Z,9.80
2022-08-08T01:48:16.830Z,9.82
2022-08-08T01:49:00.882Z,9.82
2022-08-08T01:49:59.876Z,9.84
2022-08-08T01:50:59.857Z,9.82
2022-08-08T01:52:44.168Z,9.82
2022-08-08T01:54:18.909Z,9.80
2022-08-08T01:55:17.606Z,9.69
2022-08-08T01:55:46.271Z,9.66
2022-08-08T01:56:29.708Z,9.59
2022-08-08T01:57:00.785Z,9.50
2022-08-08T01:58:13.096Z,9.48
2022-08-08T01:59:02.721Z,9.44
2022-08-08T02:00:02.981Z,9.40
2022-08-08T02:00:59.814Z,9.40
2022-08-08T02:02:05.105Z,9.39
2022-08-08T02:03:00.777Z,9.39
2022-08-08T02:03:59.731Z,9.40
2022-08-08T02:04:59.726Z,9.37
2022-08-08T02:05:59.687Z,9.34
2022-08-08T02:06:59.669Z,9.32
2022-08-08T02:07:59.743Z,9.32
2022-08-08T02:08:59.655Z,9.31
2022-08-08T02:10:03.424Z,9.32
2022-08-08T02:11:00.649Z,9.32
2022-08-08T02:12:00.870Z,9.32
2022-08-08T02:12:59.647Z,9.32
2022-08-08T02:13:59.604Z,9.32
2022-08-08T02:14:59.694Z,9.34
2022-08-08T02:15:59.566Z,9.32
2022-08-08T02:16:59.560Z,9.34
2022-08-08T02:17:59.595Z,9.34
2022-08-08T02:18:59.594Z,9.32
2022-08-08T02:20:09.447Z,9.28
2022-08-08T02:21:08.338Z,9.22
2022-08-08T02:22:00.505Z,9.21
2022-08-08T02:22:59.538Z,9.21
2022-08-08T02:23:59.479Z,9.18
2022-08-08T02:24:59.470Z,9.11
2022-08-08T02:26:00.682Z,9.08
2022-08-08T02:27:01.013Z,9.03
2022-08-08T02:28:00.982Z,8.97
2022-08-08T02:28:59.416Z,8.97
2022-08-08T02:29:59.403Z,9.00
2022-08-08T02:31:02.098Z,9.00
2022-08-08T02:32:04.615Z,9.00
2022-08-08T02:32:59.420Z,9.03
2022-08-08T02:34:08.792Z,9.03
2022-08-08T02:35:10.339Z,9.03
2022-08-08T02:36:05.200Z,9.04
2022-08-08T02:37:00.331Z,9.04
2022-08-08T02:37:59.363Z,9.11
2022-08-08T02:39:01.115Z,9.10
2022-08-08T02:40:00.405Z,9.06
2022-08-08T02:40:59.290Z,9.00
2022-08-08T02:42:05.594Z,8.97
2022-08-08T02:43:23.305Z,8.95
2022-08-08T02:44:37.904Z,8.94
2022-08-08T02:45:00.226Z,8.94
2022-08-08T02:45:59.224Z,8.92
2022-08-08T02:46:59.258Z,8.89
2022-08-08T02:47:59.262Z,8.89
2022-08-08T02:48:59.189Z,8.88
2022-08-08T02:49:59.190Z,8.88
2022-08-08T02:50:59.164Z,8.87
2022-08-08T02:52:04.365Z,8.84
2022-08-08T02:53:00.171Z,8.81
2022-08-08T02:53:59.136Z,8.78
2022-08-08T02:54:59.110Z,8.78
2022-08-08T02:55:59.882Z,8.76
2022-08-08T02:56:59.098Z,8.74
2022-08-08T02:57:59.120Z,8.71
2022-08-08T02:58:59.088Z,8.69
2022-08-08T03:00:15.895Z,8.67
2022-08-08T03:01:00.094Z,8.66
2022-08-08T03:01:59.076Z,8.64
2022-08-08T03:02:59.086Z,8.60
2022-08-08T03:05:03.297Z,8.53
2022-08-08T03:05:05.204Z,8.55
2022-08-08T03:05:59.992Z,8.48
2022-08-08T03:06:58.986Z,8.45
2022-08-08T03:07:59.404Z,8.46
2022-08-08T03:08:58.964Z,8.46
2022-08-08T03:09:58.953Z,8.51
2022-08-08T03:10:58.915Z,8.51
2022-08-08T03:12:03.092Z,8.46
2022-08-08T03:13:02.278Z,8.46
2022-08-08T03:15:56.986Z,8.44
2022-08-08T03:16:02.085Z,8.44
2022-08-08T03:16:05.245Z,8.42
2022-08-08T03:16:59.859Z,8.42
2022-08-08T03:18:04.790Z,8.42
2022-08-08T03:18:59.828Z,8.45
2022-08-08T03:19:58.838Z,8.41
2022-08-08T03:20:58.824Z,8.44
2022-08-08T03:22:00.050Z,8.44
2022-08-08T03:23:00.427Z,8.42
2022-08-08T03:23:59.791Z,8.37
2022-08-08T03:24:58.767Z,8.34
2022-08-08T03:25:58.755Z,8.36
2022-08-08T03:26:58.751Z,8.34
2022-08-08T03:27:58.805Z,8.36
2022-08-08T03:28:58.719Z,8.31
2022-08-08T03:29:58.723Z,8.30
2022-08-08T03:31:22.606Z,8.30
2022-08-08T03:32:07.210Z,8.33
2022-08-08T03:33:07.546Z,8.37
2022-08-08T03:34:00.871Z,8.33
2022-08-08T03:34:58.683Z,8.27
2022-08-08T03:35:58.653Z,8.27
2022-08-08T03:36:58.644Z,8.30
2022-08-08T03:38:52.916Z,8.28
2022-08-08T03:39:14.438Z,8.31
2022-08-08T03:40:00.457Z,8.31
2022-08-08T03:40:58.663Z,8.31
2022-08-08T03:42:12.679Z,8.31
2022-08-08T03:43:17.968Z,8.33
2022-08-08T03:43:59.933Z,8.34
2022-08-08T03:44:58.679Z,8.36
2022-08-08T03:46:05.675Z,8.38
2022-08-08T03:46:59.525Z,8.38
2022-08-08T03:47:59.570Z,8.41
2022-08-08T03:49:56.428Z,8.42
2022-08-08T03:50:02.149Z,8.44
2022-08-08T03:50:58.474Z,8.45
2022-08-08T03:51:58.486Z,8.46
2022-08-08T03:52:58.531Z,8.49
2022-08-08T03:53:58.487Z,8.53
2022-08-08T03:55:09.692Z,8.51
2022-08-08T03:56:04.407Z,8.60
2022-08-08T03:56:59.428Z,8.61
2022-08-08T03:58:32.141Z,8.61
2022-08-08T03:58:59.434Z,8.60
2022-08-08T04:00:07.922Z,8.58
2022-08-08T04:01:02.160Z,8.60
2022-08-08T04:02:31.792Z,8.55
2022-08-08T04:03:00.415Z,8.60
2022-08-08T04:04:01.908Z,8.61
2022-08-08T04:04:58.325Z,8.66
2022-08-08T04:05:58.335Z,8.67
2022-08-08T04:07:01.407Z,8.70
2022-08-08T04:07:58.388Z,8.76
2022-08-08T04:08:58.328Z,8.82
2022-08-08T04:10:03.170Z,8.94
2022-08-08T04:10:59.854Z,9.00
2022-08-08T04:12:00.837Z,9.04
2022-08-08T04:12:58.226Z,9.08
2022-08-08T04:14:03.014Z,9.13
2022-08-08T04:14:59.203Z,9.18
2022-08-08T04:16:03.914Z,9.16
2022-08-08T04:16:59.189Z,9.19
2022-08-08T04:17:59.640Z,9.21
2022-08-08T04:18:58.209Z,9.26
2022-08-08T04:19:58.151Z,9.32
2022-08-08T04:20:58.149Z,9.40
2022-08-08T04:21:58.261Z,9.47
2022-08-08T04:22:58.266Z,9.66
2022-08-08T04:24:18.764Z,9.92
2022-08-08T04:24:59.099Z,10.25
2022-08-08T04:25:58.075Z,10.51
2022-08-08T04:26:58.935Z,10.78
2022-08-08T04:28:03.382Z,11.02
2022-08-08T04:28:59.076Z,11.23
2022-08-08T04:30:01.075Z,11.51
2022-08-08T04:30:59.021Z,11.75
2022-08-08T04:32:00.480Z,11.91
2022-08-08T04:32:57.996Z,12.06
2022-08-08T04:33:58.025Z,12.24
2022-08-08T04:34:58.687Z,12.42
2022-08-08T04:35:57.966Z,12.65
2022-08-08T04:36:57.953Z,12.86
2022-08-08T04:37:57.960Z,13.09
2022-08-08T04:39:48.095Z,13.35
2022-08-08T04:40:05.316Z,13.57
2022-08-08T04:40:58.965Z,13.75
2022-08-08T04:41:57.885Z,13.92
2022-08-08T04:43:01.009Z,14.10
2022-08-08T04:43:57.936Z,14.25
2022-08-08T04:44:57.848Z,14.40
2022-08-08T04:45:57.866Z,14.59
2022-08-08T04:46:58.104Z,14.79
2022-08-08T04:47:57.835Z,15.04
2022-08-08T04:48:57.861Z,15.27
2022-08-08T04:50:01.289Z,15.46
2022-08-08T04:50:58.780Z,15.64
2022-08-08T04:51:57.893Z,15.83
2022-08-08T04:53:00.787Z,15.98
2022-08-08T04:54:38.952Z,16.17
2022-08-08T04:54:58.757Z,16.39
2022-08-08T04:55:57.742Z,16.58
2022-08-08T04:56:57.768Z,16.72
2022-08-08T04:57:59.292Z,16.91
2022-08-08T04:58:57.736Z,17.12
2022-08-08T04:59:59.446Z,17.34
2022-08-08T05:00:57.672Z,17.49
2022-08-08T05:01:59.497Z,17.68
2022-08-08T05:02:57.661Z,17.85
2022-08-08T05:04:10.695Z,17.98
2022-08-08T05:04:59.430Z,18.18
2022-08-08T05:05:57.603Z,18.40
2022-08-08T05:06:57.595Z,18.50
2022-08-08T05:07:57.594Z,18.71
2022-08-08T05:09:02.653Z,18.88
2022-08-08T05:09:58.554Z,19.11
2022-08-08T05:10:57.571Z,19.09
2022-08-08T05:11:57.587Z,19.29
2022-08-08T05:13:01.621Z,19.45
2022-08-08T05:14:01.335Z,19.48
2022-08-08T05:14:57.511Z,19.48
2022-08-08T05:16:54.999Z,19.55
2022-08-08T05:17:00.917Z,19.66
2022-08-08T05:17:57.480Z,19.81
2022-08-08T05:18:57.539Z,19.99
2022-08-08T05:20:09.731Z,20.11
2022-08-08T05:20:58.465Z,20.22
2022-08-08T05:21:59.585Z,20.13
2022-08-08T05:22:57.411Z,20.18
2022-08-08T05:24:04.097Z,20.26
2022-08-08T05:24:58.399Z,20.36
2022-08-08T05:26:00.141Z,20.41
2022-08-08T05:26:57.394Z,20.52
2022-08-08T05:27:57.386Z,20.65
2022-08-08T05:29:04.977Z,20.65
2022-08-08T05:29:58.342Z,20.81
2022-08-08T05:30:57.331Z,20.97
2022-08-08T05:32:05.410Z,21.14
2022-08-08T05:32:58.315Z,21.20
2022-08-08T05:33:58.357Z,21.02
2022-08-08T05:34:57.305Z,21.14
2022-08-08T05:35:57.256Z,21.46
2022-08-08T05:36:57.256Z,21.55
2022-08-08T05:37:58.844Z,21.69
2022-08-08T05:38:57.301Z,21.72
2022-08-08T05:39:57.295Z,21.61
2022-08-08T05:40:58.155Z,21.80
2022-08-08T05:41:57.220Z,21.88
2022-08-08T05:42:57.208Z,22.02
2022-08-08T05:44:03.767Z,22.00
2022-08-08T05:45:00.379Z,22.35
2022-08-08T05:46:03.524Z,22.55
2022-08-08T05:46:58.159Z,22.66
2022-08-08T05:48:01.269Z,22.72
2022-08-08T05:48:57.186Z,22.60
2022-08-08T05:49:57.115Z,22.80
2022-08-08T05:50:58.955Z,22.93
2022-08-08T05:51:58.089Z,22.87
2022-08-08T05:52:57.101Z,22.99
2022-08-08T05:54:27.066Z,23.13
2022-08-08T05:55:02.277Z,23.02
2022-08-08T05:56:05.179Z,23.13
2022-08-08T05:56:58.057Z,23.24
2022-08-08T05:58:05.793Z,23.41
2022-08-08T05:59:03.580Z,23.69
2022-08-08T06:00:00.504Z,23.86
2022-08-08T06:00:58.528Z,23.59
2022-08-08T06:01:58.106Z,23.34
2022-08-08T06:02:57.007Z,22.99
2022-08-08T06:03:57.077Z,22.54
2022-08-08T06:04:56.952Z,22.88
2022-08-08T06:05:59.329Z,23.09
2022-08-08T06:07:00.621Z,23.10
2022-08-08T06:08:02.523Z,23.12
2022-08-08T06:09:00.241Z,23.40
2022-08-08T06:10:00.440Z,23.40
2022-08-08T06:10:56.882Z,23.65
2022-08-08T06:11:56.876Z,23.73
2022-08-08T06:12:56.864Z,23.76
2022-08-08T06:13:56.911Z,23.55
2022-08-08T06:14:57.765Z,23.68
2022-08-08T06:15:56.822Z,24.05
2022-08-08T06:16:56.828Z,23.88
2022-08-08T06:18:20.119Z,23.86
2022-08-08T06:18:57.832Z,24.20
2022-08-08T06:19:56.762Z,24.57
2022-08-08T06:20:57.437Z,24.95
2022-08-08T06:21:57.682Z,25.04
2022-08-08T06:22:57.845Z,25.01
2022-08-08T06:24:03.561Z,25.11
2022-08-08T06:24:57.723Z,24.89
2022-08-08T06:26:35.697Z,25.03
2022-08-08T06:26:57.716Z,25.04
2022-08-08T06:27:56.873Z,25.16
2022-08-08T06:28:56.724Z,25.44
2022-08-08T06:30:00.713Z,25.55
2022-08-08T06:30:56.665Z,25.62
2022-08-08T06:32:09.928Z,25.75
2022-08-08T06:32:57.636Z,25.90
2022-08-08T06:34:26.127Z,26.09
2022-08-08T06:35:30.656Z,26.09
2022-08-08T06:36:06.144Z,26.23
2022-08-08T06:36:57.572Z,26.21
2022-08-08T06:37:57.642Z,25.85
2022-08-08T06:38:56.620Z,25.85
2022-08-08T06:39:56.758Z,25.29
2022-08-08T06:40:56.521Z,25.14
2022-08-08T06:41:56.535Z,25.55
2022-08-08T06:42:56.526Z,25.93
2022-08-08T06:43:57.097Z,25.65
2022-08-08T06:44:56.482Z,25.44
2022-08-08T06:45:56.482Z,25.58
2022-08-08T06:46:56.469Z,25.41
2022-08-08T06:48:01.285Z,25.66
2022-08-08T06:48:57.474Z,26.22
2022-08-08T06:49:57.230Z,26.26
2022-08-08T06:50:56.441Z,26.29
2022-08-08T06:51:58.021Z,26.31
2022-08-08T06:52:56.410Z,26.41
2022-08-08T06:53:56.598Z,26.41
2022-08-08T06:54:56.404Z,26.63
2022-08-08T06:56:02.571Z,26.58
2022-08-08T06:56:57.354Z,26.34
2022-08-08T06:57:59.505Z,26.44
2022-08-08T06:58:57.402Z,26.47
2022-08-08T07:00:10.148Z,26.62
2022-08-08T07:00:57.316Z,26.97
2022-08-08T07:02:27.350Z,27.44
2022-08-08T07:02:57.299Z,27.93
2022-08-08T07:04:35.669Z,28.26
2022-08-08T07:04:58.633Z,28.20
2022-08-08T07:06:02.002Z,28.01
2022-08-08T07:06:57.235Z,27.89
2022-08-08T07:07:56.218Z,27.80
2022-08-08T07:08:56.288Z,27.86
2022-08-08T07:09:59.389Z,28.02
2022-08-08T07:10:56.203Z,28.30
2022-08-08T07:11:56.194Z,27.67
2022-08-08T07:12:56.190Z,27.87
2022-08-08T07:14:00.624Z,28.25
2022-08-08T07:14:57.873Z,28.22
2022-08-08T07:16:04.919Z,28.35
2022-08-08T07:16:57.132Z,28.49
2022-08-08T07:18:01.754Z,28.45
2022-08-08T07:18:57.416Z,27.58
2022-08-08T07:19:59.893Z,27.32
2022-08-08T07:20:56.090Z,27.82
2022-08-08T07:22:00.454Z,28.26
2022-08-08T07:22:57.083Z,28.29
2022-08-08T07:24:01.505Z,28.38
2022-08-08T07:24:57.065Z,28.23
2022-08-08T07:25:56.020Z,27.74
2022-08-08T07:26:56.041Z,28.30
2022-08-08T07:28:02.589Z,28.86
2022-08-08T07:28:57.033Z,29.04
2022-08-08T07:30:00.999Z,29.13
2022-08-08T07:30:56.972Z,29.35
2022-08-08T07:31:55.995Z,29.35
2022-08-08T07:32:59.419Z,29.78
2022-08-08T07:33:59.615Z,29.66
2022-08-08T07:35:00.406Z,29.49
2022-08-08T07:35:56.932Z,29.24
2022-08-08T07:36:55.885Z,28.98
2022-08-08T07:38:10.135Z,28.97
2022-08-08T07:38:56.917Z,28.98
2022-08-08T07:39:59.630Z,27.96
2022-08-08T07:40:55.878Z,28.35
2022-08-08T07:42:03.572Z,29.07
2022-08-08T07:42:56.867Z,29.24
2022-08-08T07:43:55.895Z,29.07
2022-08-08T07:44:55.838Z,28.54
2022-08-08T07:46:18.443Z,28.29
2022-08-08T07:46:56.812Z,28.82
2022-08-08T07:47:55.783Z,29.42
2022-08-08T07:48:55.814Z,29.69
2022-08-08T07:49:55.776Z,30.43
2022-08-08T07:50:55.748Z,31.18
2022-08-08T07:51:55.754Z,31.54
2022-08-08T07:52:55.729Z,31.51
2022-08-08T07:54:02.718Z,31.89
2022-08-08T07:54:56.709Z,31.74
2022-08-08T07:55:55.712Z,31.52
2022-08-08T07:56:55.686Z,31.77
2022-08-08T07:57:55.676Z,31.73
2022-08-08T07:58:55.734Z,31.15
2022-08-08T07:59:55.670Z,30.53
2022-08-08T08:00:55.705Z,30.46
2022-08-08T08:02:37.363Z,29.88
2022-08-08T08:02:56.635Z,29.13
2022-08-08T08:03:55.657Z,29.13
2022-08-08T08:04:55.591Z,29.73
2022-08-08T08:05:55.595Z,30.34
2022-08-08T08:06:55.572Z,30.28
2022-08-08T08:07:55.554Z,30.23
2022-08-08T08:08:55.596Z,30.44
2022-08-08T08:09:55.539Z,30.94
2022-08-08T08:10:55.539Z,30.83
2022-08-08T08:11:55.518Z,30.24
2022-08-08T08:12:55.503Z,30.40
2022-08-08T08:14:08.150Z,30.43
2022-08-08T08:14:56.583Z,30.61
2022-08-08T08:15:55.478Z,31.25
2022-08-08T08:16:55.478Z,31.44
2022-08-08T08:17:56.548Z,31.76
2022-08-08T08:18:56.606Z,32.43
2022-08-08T08:19:55.725Z,32.15
2022-08-08T08:20:55.427Z,31.12
2022-08-08T08:21:58.030Z,30.70
2022-08-08T08:22:56.401Z,30.68
2022-08-08T08:23:55.434Z,30.69
2022-08-08T08:24:56.385Z,31.07
2022-08-08T08:25:59.982Z,31.62
2022-08-08T08:26:55.377Z,31.89
2022-08-08T08:27:55.337Z,31.85
2022-08-08T08:28:55.382Z,31.22
2022-08-08T08:29:55.328Z,30.97
2022-08-08T08:30:55.331Z,31.07
2022-08-08T08:31:58.266Z,31.22
2022-08-08T08:32:55.319Z,31.64
2022-08-08T08:33:55.340Z,31.70
2022-08-08T08:34:55.263Z,32.16
2022-08-08T08:36:18.449Z,32.67
2022-08-08T08:36:56.243Z,32.77
2022-08-08T08:38:15.630Z,32.46
2022-08-08T08:38:56.260Z,32.56
2022-08-08T08:40:00.440Z,33.24
2022-08-08T08:40:56.202Z,33.94
2022-08-08T08:41:55.216Z,34.36
2022-08-08T08:42:55.189Z,33.71
2022-08-08T08:44:13.446Z,33.27
2022-08-08T08:44:56.228Z,33.14
2022-08-08T08:45:57.412Z,33.65
2022-08-08T08:46:58.810Z,33.64
2022-08-08T08:47:58.442Z,33.79
2022-08-08T08:48:56.151Z,34.38
2022-08-08T08:49:55.121Z,34.58
2022-08-08T08:50:55.107Z,34.61
2022-08-08T08:51:55.071Z,33.84
2022-08-08T08:52:59.572Z,32.30
2022-08-08T08:54:00.124Z,30.34
2022-08-08T08:54:56.063Z,30.43
2022-08-08T08:55:55.036Z,30.66
2022-08-08T08:56:55.054Z,31.03
2022-08-08T08:57:55.010Z,31.14
2022-08-08T08:58:55.077Z,31.56
2022-08-08T09:00:01.629Z,32.29
2022-08-08T09:01:08.592Z,31.94
2022-08-08T09:01:56.004Z,31.64
2022-08-08T09:02:54.981Z,31.84
2022-08-08T09:03:55.020Z,31.74
2022-08-08T09:04:54.957Z,31.49
2022-08-08T09:05:56.246Z,32.30
2022-08-08T09:06:54.914Z,32.93
2022-08-08T09:08:12.916Z,32.82
2022-08-08T09:08:55.950Z,33.14
2022-08-08T09:09:57.395Z,32.92
2022-08-08T09:10:54.904Z,33.52
2022-08-08T09:12:01.992Z,33.62
2022-08-08T09:12:55.878Z,33.27
2022-08-08T09:13:54.895Z,32.74
2022-08-08T09:14:54.850Z,32.92
2022-08-08T09:16:03.910Z,32.49
2022-08-08T09:16:55.840Z,32.80
2022-08-08T09:17:56.063Z,33.12
2022-08-08T09:18:54.830Z,32.89
2022-08-08T09:21:59.988Z,32.90
2022-08-08T09:22:00.859Z,32.92
2022-08-08T09:22:05.815Z,30.90
2022-08-08T09:22:58.728Z,31.00
2022-08-08T09:23:54.763Z,31.59
2022-08-08T09:24:54.803Z,31.87
2022-08-08T09:26:00.696Z,32.34
2022-08-08T09:26:55.732Z,31.90
2022-08-08T09:27:57.724Z,32.14
2022-08-08T09:28:54.716Z,32.45
2022-08-08T09:29:56.937Z,33.02
2022-08-08T09:30:54.689Z,33.67
2022-08-08T09:31:56.773Z,33.77
2022-08-08T09:33:12.425Z,33.22
2022-08-08T09:34:30.492Z,33.55
2022-08-08T09:34:55.712Z,34.42
2022-08-08T09:35:54.630Z,34.03
2022-08-08T09:37:39.657Z,33.92
2022-08-08T09:38:00.764Z,33.95
2022-08-08T09:38:56.271Z,34.77
2022-08-08T09:39:54.677Z,35.23
2022-08-08T09:40:57.722Z,34.50
2022-08-08T09:42:20.125Z,33.31
2022-08-08T09:42:55.570Z,32.71
2022-08-08T09:44:05.039Z,32.82
2022-08-08T09:44:55.579Z,32.41
2022-08-08T09:46:02.948Z,32.22
2022-08-08T09:47:03.977Z,32.34
2022-08-08T09:48:04.054Z,32.45
2022-08-08T09:48:55.498Z,32.45
2022-08-08T09:49:54.709Z,32.11
2022-08-08T09:50:55.954Z,32.01
2022-08-08T09:52:07.094Z,32.22
2022-08-08T09:53:00.978Z,32.26
2022-08-08T09:54:06.839Z,31.31
2022-08-08T09:54:55.477Z,29.71
2022-08-08T09:56:05.129Z,28.79
2022-08-08T09:56:55.415Z,29.68
2022-08-08T09:57:55.447Z,30.44
2022-08-08T09:58:54.392Z,30.97
2022-08-08T10:00:28.635Z,31.25
2022-08-08T10:00:57.587Z,31.12
2022-08-08T10:02:00.148Z,32.16
2022-08-08T10:02:55.359Z,32.59
2022-08-08T10:03:55.816Z,32.23
2022-08-08T10:04:54.408Z,33.22
2022-08-08T10:05:54.348Z,31.94
2022-08-08T10:06:54.297Z,32.21
2022-08-08T10:07:54.306Z,32.87
2022-08-08T10:08:55.323Z,33.73
2022-08-08T10:09:58.759Z,34.17
2022-08-08T10:10:55.264Z,34.86
2022-08-08T10:12:26.666Z,35.33
2022-08-08T10:12:57.535Z,34.48
2022-08-08T10:13:57.116Z,34.39
2022-08-08T10:14:54.305Z,34.50
2022-08-08T10:16:00.687Z,34.75
2022-08-08T10:16:55.226Z,34.23
2022-08-08T10:18:07.249Z,32.86
2022-08-08T10:18:55.414Z,33.61
2022-08-08T10:19:58.274Z,33.64
2022-08-08T10:21:00.438Z,34.60
2022-08-08T10:21:55.198Z,34.80
2022-08-08T10:22:55.028Z,34.99
2022-08-08T10:23:57.928Z,35.15
2022-08-08T10:24:55.187Z,33.62
2022-08-08T10:25:57.290Z,32.74
2022-08-08T10:26:58.863Z,31.10
2022-08-08T10:27:57.637Z,30.63
2022-08-08T10:28:54.093Z,30.48
2022-08-08T10:29:58.668Z,30.34
2022-08-08T10:30:59.717Z,29.68
2022-08-08T10:31:55.222Z,29.10
2022-08-08T10:32:54.092Z,27.93
2022-08-08T10:34:20.054Z,27.07
2022-08-08T10:35:00.389Z,26.48
2022-08-08T10:36:12.517Z,26.36
2022-08-08T10:36:55.006Z,26.52
2022-08-08T10:37:54.006Z,26.47
2022-08-08T10:38:53.983Z,26.92
2022-08-08T10:39:55.421Z,27.30
2022-08-08T10:40:54.059Z,27.22
2022-08-08T10:42:13.256Z,28.39
2022-08-08T10:42:54.969Z,29.41
2022-08-08T10:43:53.972Z,29.75
2022-08-08T10:44:53.976Z,29.97
2022-08-08T10:45:56.168Z,30.37
2022-08-08T10:46:53.920Z,30.21
2022-08-08T10:47:55.296Z,30.34
2022-08-08T10:48:56.906Z,31.02
2022-08-08T10:50:01.838Z,31.15
2022-08-08T10:50:54.862Z,31.55
2022-08-08T10:51:53.886Z,32.01
2022-08-08T10:52:53.892Z,32.14
2022-08-08T10:53:57.541Z,32.34
2022-08-08T10:54:54.874Z,32.07
2022-08-08T10:55:53.852Z,32.26
2022-08-08T10:56:53.867Z,32.21
2022-08-08T10:57:53.839Z,32.59
2022-08-08T10:58:54.595Z,33.49
2022-08-08T10:59:53.862Z,34.24
2022-08-08T11:01:04.062Z,35.07
2022-08-08T11:01:55.142Z,35.17
2022-08-08T11:02:53.769Z,35.11
2022-08-08T11:04:02.037Z,35.64
2022-08-08T11:04:54.778Z,35.11
2022-08-08T11:06:00.458Z,34.66
2022-08-08T11:06:54.736Z,33.94
2022-08-08T11:08:38.865Z,34.23
2022-08-08T11:08:54.696Z,34.73
2022-08-08T11:09:53.741Z,34.33
2022-08-08T11:10:53.683Z,32.71
2022-08-08T11:12:04.907Z,31.69
2022-08-08T11:13:18.987Z,31.14
2022-08-08T11:13:59.856Z,31.66
2022-08-08T11:14:54.716Z,31.47
2022-08-08T11:16:00.588Z,32.31
2022-08-08T11:16:54.615Z,33.17
2022-08-08T11:17:58.089Z,33.52
2022-08-08T11:18:54.612Z,33.73
2022-08-08T11:19:53.699Z,32.63
2022-08-08T11:20:53.584Z,32.43
2022-08-08T11:21:55.377Z,32.04
2022-08-08T11:22:53.560Z,32.71
2022-08-08T11:24:02.063Z,32.97
2022-08-08T11:24:54.614Z,33.50
2022-08-08T11:25:57.358Z,33.87
2022-08-08T11:26:57.018Z,33.55
2022-08-08T11:27:53.546Z,33.68
2022-08-08T11:28:53.516Z,33.15
2022-08-08T11:30:18.466Z,32.63
2022-08-08T11:30:54.477Z,33.22
2022-08-08T11:31:53.479Z,32.52
2022-08-08T11:32:53.730Z,32.52
2022-08-08T11:34:01.879Z,32.78
2022-08-08T11:35:24.983Z,32.60
2022-08-08T11:35:54.451Z,32.51
2022-08-08T11:36:53.439Z,31.81
2022-08-08T11:38:39.173Z,31.51
2022-08-08T11:38:55.987Z,31.94
2022-08-08T11:39:57.558Z,32.03
2022-08-08T11:40:53.411Z,32.64
2022-08-08T11:41:53.405Z,32.65
2022-08-08T11:42:53.393Z,32.48
2022-08-08T11:43:53.364Z,32.67
2022-08-08T11:44:53.414Z,32.70
2022-08-08T11:46:09.661Z,31.55
2022-08-08T11:46:54.468Z,31.44
2022-08-08T11:48:04.590Z,31.34
2022-08-08T11:48:54.327Z,32.08
2022-08-08T11:49:53.351Z,32.26
2022-08-08T11:50:53.344Z,31.93
2022-08-08T11:51:53.298Z,32.49
2022-08-08T11:52:53.289Z,32.15
2022-08-08T11:53:59.107Z,32.38
2022-08-08T11:54:54.470Z,32.90
2022-08-08T11:55:53.270Z,32.96
2022-08-08T11:56:56.651Z,33.17
2022-08-08T11:57:59.559Z,33.53
2022-08-08T11:58:54.228Z,33.12
2022-08-08T12:00:00.709Z,33.49
2022-08-08T12:00:54.206Z,32.64
2022-08-08T12:02:01.193Z,31.59
2022-08-08T12:02:54.259Z,31.43
2022-08-08T12:03:57.499Z,30.78
2022-08-08T12:04:54.227Z,30.69
2022-08-08T12:05:53.172Z,30.99
2022-08-08T12:06:53.134Z,31.21
2022-08-08T12:07:53.142Z,30.73
2022-08-08T12:08:53.136Z,30.59
2022-08-08T12:09:59.707Z,30.12
2022-08-08T12:10:54.096Z,29.08
2022-08-08T12:11:53.117Z,29.57
2022-08-08T12:12:54.683Z,29.95
2022-08-08T12:14:03.455Z,30.24
2022-08-08T12:14:54.887Z,30.96
2022-08-08T12:15:53.088Z,31.39
2022-08-08T12:16:53.106Z,31.99
2022-08-08T12:17:53.064Z,32.60
2022-08-08T12:18:53.353Z,33.30
2022-08-08T12:19:53.998Z,34.23
2022-08-08T12:20:53.365Z,34.11
2022-08-08T12:22:00.034Z,33.98
2022-08-08T12:22:53.980Z,33.96
2022-08-08T12:23:59.506Z,34.06
2022-08-08T12:24:56.243Z,34.08
2022-08-08T12:25:56.549Z,33.15
2022-08-08T12:26:52.964Z,32.97
2022-08-08T12:27:52.952Z,33.02
2022-08-08T12:28:53.942Z,33.17
2022-08-08T12:29:52.986Z,33.86
2022-08-08T12:30:52.933Z,34.08
2022-08-08T12:31:53.482Z,33.80
2022-08-08T12:32:52.915Z,33.98
2022-08-08T12:34:03.174Z,33.31
2022-08-08T12:34:55.315Z,32.70
2022-08-08T12:35:53.868Z,32.95
2022-08-08T12:36:52.855Z,33.15
2022-08-08T12:38:01.864Z,33.40
2022-08-08T12:38:55.500Z,33.20
2022-08-08T12:40:01.132Z,33.09
2022-08-08T12:40:56.316Z,33.01
2022-08-08T12:41:57.182Z,31.36
2022-08-08T12:42:53.874Z,31.05
2022-08-08T12:43:59.544Z,31.22
2022-08-08T12:44:53.811Z,31.71
2022-08-08T12:45:59.937Z,31.94
2022-08-08T12:46:58.780Z,31.96
2022-08-08T12:48:04.608Z,32.52
2022-08-08T12:49:12.023Z,32.29
2022-08-08T12:49:53.767Z,32.21
2022-08-08T12:50:52.732Z,32.45
2022-08-08T12:51:59.360Z,32.31
2022-08-08T12:52:53.714Z,31.28
2022-08-08T12:53:52.722Z,30.72
2022-08-08T12:54:53.752Z,30.19
2022-08-08T12:56:17.884Z,29.63
2022-08-08T12:56:53.662Z,29.13
2022-08-08T12:57:56.676Z,29.08